sensor_id;sensor_type;location;lat;lon;timestamp;temperature;humidity
60242;SHT30;46103;52.076;113.488;2024-03-08T00:02:08;-12.99;57.61
60242;SHT30;46103;52.076;113.488;2024-03-08T00:05:13;-12.91;57.20
60242;SHT30;46103;52.076;113.488;2024-03-08T00:08:18;-12.75;56.98
60242;SHT30;46103;52.076;113.488;2024-03-08T00:11:22;-12.64;57.13
60242;SHT30;46103;52.076;113.488;2024-03-08T00:14:29;-12.53;56.94
60242;SHT30;46103;52.076;113.488;2024-03-08T00:17:32;-12.39;56.60
60242;SHT30;46103;52.076;113.488;2024-03-08T00:20:35;-12.26;56.09
60242;SHT30;46103;52.076;113.488;2024-03-08T00:23:38;-12.19;55.62
60242;SHT30;46103;52.076;113.488;2024-03-08T00:26:42;-12.08;55.85
60242;SHT30;46103;52.076;113.488;2024-03-08T00:29:47;-11.95;55.68
60242;SHT30;46103;52.076;113.488;2024-03-08T00:32:51;-11.84;54.78
60242;SHT30;46103;52.076;113.488;2024-03-08T00:35:55;-11.78;54.29
60242;SHT30;46103;52.076;113.488;2024-03-08T00:38:58;-11.71;54.14
60242;SHT30;46103;52.076;113.488;2024-03-08T00:42:04;-11.64;53.55
60242;SHT30;46103;52.076;113.488;2024-03-08T00:45:07;-11.54;53.25
60242;SHT30;46103;52.076;113.488;2024-03-08T00:48:11;-11.50;52.95
60242;SHT30;46103;52.076;113.488;2024-03-08T00:51:15;-11.43;52.84
60242;SHT30;46103;52.076;113.488;2024-03-08T00:54:18;-11.39;52.69
60242;SHT30;46103;52.076;113.488;2024-03-08T00:57:22;-11.39;52.33
60242;SHT30;46103;52.076;113.488;2024-03-08T01:00:25;-11.32;52.25
60242;SHT30;46103;52.076;113.488;2024-03-08T01:03:28;-11.23;52.23
60242;SHT30;46103;52.076;113.488;2024-03-08T01:06:35;-11.07;52.15
60242;SHT30;46103;52.076;113.488;2024-03-08T01:09:39;-10.94;52.09
60242;SHT30;46103;52.076;113.488;2024-03-08T01:12:42;-10.81;51.86
60242;SHT30;46103;52.076;113.488;2024-03-08T01:15:46;-10.64;51.80
60242;SHT30;46103;52.076;113.488;2024-03-08T01:18:49;-10.53;51.83
60242;SHT30;46103;52.076;113.488;2024-03-08T01:21:54;-10.39;51.89
60242;SHT30;46103;52.076;113.488;2024-03-08T01:24:59;-10.21;51.77
60242;SHT30;46103;52.076;113.488;2024-03-08T01:28:04;-10.08;51.59
60242;SHT30;46103;52.076;113.488;2024-03-08T01:31:07;-9.93;51.50
60242;SHT30;46103;52.076;113.488;2024-03-08T01:34:12;-9.78;51.42
60242;SHT30;46103;52.076;113.488;2024-03-08T01:37:15;-9.77;51.43
60242;SHT30;46103;52.076;113.488;2024-03-08T01:40:19;-9.57;51.93
60242;SHT30;46103;52.076;113.488;2024-03-08T01:43:27;-9.40;51.98
60242;SHT30;46103;52.076;113.488;2024-03-08T01:46:35;-9.22;52.57
60242;SHT30;46103;52.076;113.488;2024-03-08T01:49:37;-9.02;52.15
60242;SHT30;46103;52.076;113.488;2024-03-08T01:52:42;-8.85;52.60
60242;SHT30;46103;52.076;113.488;2024-03-08T01:55:49;-8.66;52.57
60242;SHT30;46103;52.076;113.488;2024-03-08T01:58:57;-8.60;52.38
60242;SHT30;46103;52.076;113.488;2024-03-08T02:02:02;-8.40;52.18
60242;SHT30;46103;52.076;113.488;2024-03-08T02:05:09;-8.36;52.16
60242;SHT30;46103;52.076;113.488;2024-03-08T02:08:15;-8.15;52.42
60242;SHT30;46103;52.076;113.488;2024-03-08T02:11:34;-7.94;52.56
60242;SHT30;46103;52.076;113.488;2024-03-08T02:14:57;-7.67;52.63
60242;SHT30;46103;52.076;113.488;2024-03-08T02:21:53;-7.26;51.79
60242;SHT30;46103;52.076;113.488;2024-03-08T02:25:30;-7.07;51.62
60242;SHT30;46103;52.076;113.488;2024-03-08T02:28:49;-7.00;51.46
60242;SHT30;46103;52.076;113.488;2024-03-08T02:31:53;-7.03;51.67
60242;SHT30;46103;52.076;113.488;2024-03-08T02:34:57;-7.00;52.39
60242;SHT30;46103;52.076;113.488;2024-03-08T02:38:04;-6.85;52.28
60242;SHT30;46103;52.076;113.488;2024-03-08T02:41:08;-6.49;52.07
60242;SHT30;46103;52.076;113.488;2024-03-08T02:44:12;-6.26;51.71
60242;SHT30;46103;52.076;113.488;2024-03-08T02:47:17;-6.11;51.45
60242;SHT30;46103;52.076;113.488;2024-03-08T02:50:21;-5.91;51.32
60242;SHT30;46103;52.076;113.488;2024-03-08T02:53:29;-5.88;51.23
60242;SHT30;46103;52.076;113.488;2024-03-08T02:56:33;-5.73;50.90
60242;SHT30;46103;52.076;113.488;2024-03-08T02:59:38;-5.58;50.58
60242;SHT30;46103;52.076;113.488;2024-03-08T03:02:44;-5.38;50.59
60242;SHT30;46103;52.076;113.488;2024-03-08T03:05:47;-5.26;50.24
60242;SHT30;46103;52.076;113.488;2024-03-08T03:08:51;-5.19;50.29
60242;SHT30;46103;52.076;113.488;2024-03-08T03:11:55;-4.97;50.39
60242;SHT30;46103;52.076;113.488;2024-03-08T03:14:59;-5.22;50.63
60242;SHT30;46103;52.076;113.488;2024-03-08T03:18:04;-4.85;50.78
60242;SHT30;46103;52.076;113.488;2024-03-08T03:21:12;-4.65;50.29
60242;SHT30;46103;52.076;113.488;2024-03-08T03:24:17;-4.46;50.00
60242;SHT30;46103;52.076;113.488;2024-03-08T03:27:21;-4.56;50.20
60242;SHT30;46103;52.076;113.488;2024-03-08T03:30:25;-4.21;50.20
60242;SHT30;46103;52.076;113.488;2024-03-08T03:33:29;-4.01;49.48
60242;SHT30;46103;52.076;113.488;2024-03-08T03:36:34;-3.81;49.05
60242;SHT30;46103;52.076;113.488;2024-03-08T03:39:40;-3.79;49.12
60242;SHT30;46103;52.076;113.488;2024-03-08T03:42:51;-3.58;49.22
60242;SHT30;46103;52.076;113.488;2024-03-08T03:45:56;-3.27;48.49
60242;SHT30;46103;52.076;113.488;2024-03-08T03:48:59;-3.08;48.00
60242;SHT30;46103;52.076;113.488;2024-03-08T03:52:04;-3.07;47.90
60242;SHT30;46103;52.076;113.488;2024-03-08T03:55:08;-2.97;48.21
60242;SHT30;46103;52.076;113.488;2024-03-08T03:58:14;-2.80;48.24
60242;SHT30;46103;52.076;113.488;2024-03-08T04:01:19;-2.46;47.52
60242;SHT30;46103;52.076;113.488;2024-03-08T04:04:23;-2.56;47.39
60242;SHT30;46103;52.076;113.488;2024-03-08T04:07:28;-2.53;47.48
60242;SHT30;46103;52.076;113.488;2024-03-08T04:10:31;-2.48;47.70
60242;SHT30;46103;52.076;113.488;2024-03-08T04:13:35;-2.32;47.62
60242;SHT30;46103;52.076;113.488;2024-03-08T04:16:40;-2.22;47.52
60242;SHT30;46103;52.076;113.488;2024-03-08T04:19:43;-2.09;47.23
60242;SHT30;46103;52.076;113.488;2024-03-08T04:22:48;-2.07;47.24
60242;SHT30;46103;52.076;113.488;2024-03-08T04:25:52;-1.79;47.08
60242;SHT30;46103;52.076;113.488;2024-03-08T04:28:56;-1.59;46.57
60242;SHT30;46103;52.076;113.488;2024-03-08T04:32:03;-1.48;47.10
60242;SHT30;46103;52.076;113.488;2024-03-08T04:35:07;-1.38;46.39
60242;SHT30;46103;52.076;113.488;2024-03-08T04:38:11;-1.16;45.74
60242;SHT30;46103;52.076;113.488;2024-03-08T04:41:15;-1.12;45.82
60242;SHT30;46103;52.076;113.488;2024-03-08T04:44:19;-1.11;45.09
60242;SHT30;46103;52.076;113.488;2024-03-08T04:47:23;-1.03;45.58
60242;SHT30;46103;52.076;113.488;2024-03-08T04:50:27;-0.95;45.48
60242;SHT30;46103;52.076;113.488;2024-03-08T04:53:32;-0.70;44.79
60242;SHT30;46103;52.076;113.488;2024-03-08T04:56:37;-0.65;44.79
60242;SHT30;46103;52.076;113.488;2024-03-08T04:59:43;-0.55;44.43
60242;SHT30;46103;52.076;113.488;2024-03-08T05:02:50;-0.33;44.01
60242;SHT30;46103;52.076;113.488;2024-03-08T05:06:03;-0.07;44.03
60242;SHT30;46103;52.076;113.488;2024-03-08T05:09:08;0.21;43.58
60242;SHT30;46103;52.076;113.488;2024-03-08T05:12:22;0.55;42.82
60242;SHT30;46103;52.076;113.488;2024-03-08T05:15:27;0.89;41.86
60242;SHT30;46103;52.076;113.488;2024-03-08T05:18:31;1.03;41.22
60242;SHT30;46103;52.076;113.488;2024-03-08T05:21:35;1.19;40.85
60242;SHT30;46103;52.076;113.488;2024-03-08T05:24:39;1.22;40.45
60242;SHT30;46103;52.076;113.488;2024-03-08T05:27:43;1.44;40.00
60242;SHT30;46103;52.076;113.488;2024-03-08T05:31:02;1.70;39.41
60242;SHT30;46103;52.076;113.488;2024-03-08T05:34:06;1.74;39.42
60242;SHT30;46103;52.076;113.488;2024-03-08T05:37:13;1.92;39.45
60242;SHT30;46103;52.076;113.488;2024-03-08T05:40:16;1.78;39.90
60242;SHT30;46103;52.076;113.488;2024-03-08T05:43:23;1.78;39.83
60242;SHT30;46103;52.076;113.488;2024-03-08T05:46:27;1.81;40.03
60242;SHT30;46103;52.076;113.488;2024-03-08T05:49:31;2.03;39.47
60242;SHT30;46103;52.076;113.488;2024-03-08T05:52:34;2.22;39.19
60242;SHT30;46103;52.076;113.488;2024-03-08T05:55:37;2.41;38.80
60242;SHT30;46103;52.076;113.488;2024-03-08T05:58:41;2.53;38.44
60242;SHT30;46103;52.076;113.488;2024-03-08T06:01:45;2.46;38.68
60242;SHT30;46103;52.076;113.488;2024-03-08T06:04:50;2.57;38.19
60242;SHT30;46103;52.076;113.488;2024-03-08T06:07:54;2.64;38.09
60242;SHT30;46103;52.076;113.488;2024-03-08T06:10:57;2.53;38.01
60242;SHT30;46103;52.076;113.488;2024-03-08T06:14:02;2.47;38.02
60242;SHT30;46103;52.076;113.488;2024-03-08T06:17:06;2.47;38.30
60242;SHT30;46103;52.076;113.488;2024-03-08T06:20:11;2.80;37.90
60242;SHT30;46103;52.076;113.488;2024-03-08T06:23:16;2.95;37.51
60242;SHT30;46103;52.076;113.488;2024-03-08T06:26:25;3.18;37.25
60242;SHT30;46103;52.076;113.488;2024-03-08T06:29:33;3.34;37.03
60242;SHT30;46103;52.076;113.488;2024-03-08T06:32:36;3.63;36.56
60242;SHT30;46103;52.076;113.488;2024-03-08T06:35:41;3.77;36.23
60242;SHT30;46103;52.076;113.488;2024-03-08T06:38:45;4.03;35.87
60242;SHT30;46103;52.076;113.488;2024-03-08T06:41:49;4.22;35.80
60242;SHT30;46103;52.076;113.488;2024-03-08T06:44:55;4.42;35.28
60242;SHT30;46103;52.076;113.488;2024-03-08T06:48:03;4.52;34.94
60242;SHT30;46103;52.076;113.488;2024-03-08T06:51:12;4.75;34.47
60242;SHT30;46103;52.076;113.488;2024-03-08T06:54:17;5.02;34.22
60242;SHT30;46103;52.076;113.488;2024-03-08T06:57:21;5.26;33.82
60242;SHT30;46103;52.076;113.488;2024-03-08T07:00:28;5.51;33.54
60242;SHT30;46103;52.076;113.488;2024-03-08T07:03:34;5.68;32.86
60242;SHT30;46103;52.076;113.488;2024-03-08T07:06:38;5.84;32.54
60242;SHT30;46103;52.076;113.488;2024-03-08T07:09:47;5.91;32.22
60242;SHT30;46103;52.076;113.488;2024-03-08T07:12:52;5.95;32.29
60242;SHT30;46103;52.076;113.488;2024-03-08T07:16:04;6.01;31.98
60242;SHT30;46103;52.076;113.488;2024-03-08T07:19:08;6.04;31.52
60242;SHT30;46103;52.076;113.488;2024-03-08T07:22:40;6.06;31.75
60242;SHT30;46103;52.076;113.488;2024-03-08T07:25:57;6.04;32.14
60242;SHT30;46103;52.076;113.488;2024-03-08T07:29:00;6.08;31.80
60242;SHT30;46103;52.076;113.488;2024-03-08T07:32:03;6.12;31.47
60242;SHT30;46103;52.076;113.488;2024-03-08T07:35:33;6.25;31.48
60242;SHT30;46103;52.076;113.488;2024-03-08T07:38:40;6.46;31.36
60242;SHT30;46103;52.076;113.488;2024-03-08T07:41:45;6.73;31.09
60242;SHT30;46103;52.076;113.488;2024-03-08T07:44:48;6.98;30.89
60242;SHT30;46103;52.076;113.488;2024-03-08T07:47:56;7.33;30.26
60242;SHT30;46103;52.076;113.488;2024-03-08T07:51:16;7.73;29.94
60242;SHT30;46103;52.076;113.488;2024-03-08T07:54:34;8.15;29.33
60242;SHT30;46103;52.076;113.488;2024-03-08T07:57:40;8.69;28.84
60242;SHT30;46103;52.076;113.488;2024-03-08T08:00:44;9.19;28.45
60242;SHT30;46103;52.076;113.488;2024-03-08T08:07:21;10.21;27.22
60242;SHT30;46103;52.076;113.488;2024-03-08T08:10:26;10.56;27.05
60242;SHT30;46103;52.076;113.488;2024-03-08T08:13:46;11.06;26.55
60242;SHT30;46103;52.076;113.488;2024-03-08T08:16:49;11.21;26.32
60242;SHT30;46103;52.076;113.488;2024-03-08T08:20:02;11.08;26.34
60242;SHT30;46103;52.076;113.488;2024-03-08T08:23:30;11.42;26.14
60242;SHT30;46103;52.076;113.488;2024-03-08T08:26:33;11.73;25.69
60242;SHT30;46103;52.076;113.488;2024-03-08T08:29:41;12.03;25.66
60242;SHT30;46103;52.076;113.488;2024-03-08T08:32:44;12.18;25.43
60242;SHT30;46103;52.076;113.488;2024-03-08T08:35:50;12.40;25.14
60242;SHT30;46103;52.076;113.488;2024-03-08T08:38:57;12.68;24.97
60242;SHT30;46103;52.076;113.488;2024-03-08T08:42:01;12.82;24.76
60242;SHT30;46103;52.076;113.488;2024-03-08T08:45:07;13.04;24.74
60242;SHT30;46103;52.076;113.488;2024-03-08T08:48:19;12.99;24.72
60242;SHT30;46103;52.076;113.488;2024-03-08T08:51:23;13.10;24.55
60242;SHT30;46103;52.076;113.488;2024-03-08T08:54:27;13.14;24.61
60242;SHT30;46103;52.076;113.488;2024-03-08T08:57:31;13.03;24.71
60242;SHT30;46103;52.076;113.488;2024-03-08T09:00:36;12.89;25.08
60242;SHT30;46103;52.076;113.488;2024-03-08T09:03:40;12.90;25.09
60242;SHT30;46103;52.076;113.488;2024-03-08T09:06:45;12.93;24.93
60242;SHT30;46103;52.076;113.488;2024-03-08T09:09:48;12.95;24.98
60242;SHT30;46103;52.076;113.488;2024-03-08T09:12:51;12.79;24.78
60242;SHT30;46103;52.076;113.488;2024-03-08T09:15:55;12.63;25.05
60242;SHT30;46103;52.076;113.488;2024-03-08T09:18:59;12.59;25.06
60242;SHT30;46103;52.076;113.488;2024-03-08T09:22:03;12.44;25.08
60242;SHT30;46103;52.076;113.488;2024-03-08T09:25:07;12.35;25.19
60242;SHT30;46103;52.076;113.488;2024-03-08T09:28:12;12.20;25.45
60242;SHT30;46103;52.076;113.488;2024-03-08T09:31:17;11.80;25.67
60242;SHT30;46103;52.076;113.488;2024-03-08T09:34:20;11.34;26.23
60242;SHT30;46103;52.076;113.488;2024-03-08T09:37:35;10.69;26.79
60242;SHT30;46103;52.076;113.488;2024-03-08T09:40:41;10.07;27.48
60242;SHT30;46103;52.076;113.488;2024-03-08T09:43:46;9.57;28.15
60242;SHT30;46103;52.076;113.488;2024-03-08T09:46:52;9.12;28.58
60242;SHT30;46103;52.076;113.488;2024-03-08T09:49:58;8.48;29.15
60242;SHT30;46103;52.076;113.488;2024-03-08T09:53:03;8.01;29.78
60242;SHT30;46103;52.076;113.488;2024-03-08T09:56:09;7.59;30.33
60242;SHT30;46103;52.076;113.488;2024-03-08T09:59:16;6.88;31.10
60242;SHT30;46103;52.076;113.488;2024-03-08T10:02:28;6.49;31.99
60242;SHT30;46103;52.076;113.488;2024-03-08T10:05:34;6.16;32.21
60242;SHT30;46103;52.076;113.488;2024-03-08T10:08:41;5.78;32.78
60242;SHT30;46103;52.076;113.488;2024-03-08T10:11:48;5.39;33.48
60242;SHT30;46103;52.076;113.488;2024-03-08T10:14:55;4.95;34.11
60242;SHT30;46103;52.076;113.488;2024-03-08T10:18:00;4.58;34.90
60242;SHT30;46103;52.076;113.488;2024-03-08T10:21:09;4.22;35.45
60242;SHT30;46103;52.076;113.488;2024-03-08T10:24:20;3.85;36.29
60242;SHT30;46103;52.076;113.488;2024-03-08T10:27:27;3.51;38.08
60242;SHT30;46103;52.076;113.488;2024-03-08T10:30:33;3.09;39.22
60242;SHT30;46103;52.076;113.488;2024-03-08T10:33:38;2.77;39.18
60242;SHT30;46103;52.076;113.488;2024-03-08T10:36:44;2.40;38.95
60242;SHT30;46103;52.076;113.488;2024-03-08T10:40:05;2.15;39.39
60242;SHT30;46103;52.076;113.488;2024-03-08T10:50:18;1.61;40.68
60242;SHT30;46103;52.076;113.488;2024-03-08T10:53:41;1.34;40.97
60242;SHT30;46103;52.076;113.488;2024-03-08T10:56:59;1.16;41.63
60242;SHT30;46103;52.076;113.488;2024-03-08T11:03:51;0.88;42.97
60242;SHT30;46103;52.076;113.488;2024-03-08T11:07:02;0.75;42.38
60242;SHT30;46103;52.076;113.488;2024-03-08T11:10:19;0.68;42.29
60242;SHT30;46103;52.076;113.488;2024-03-08T11:13:40;0.65;42.58
60242;SHT30;46103;52.076;113.488;2024-03-08T11:16:45;0.58;42.33
60242;SHT30;46103;52.076;113.488;2024-03-08T11:19:49;0.51;42.86
60242;SHT30;46103;52.076;113.488;2024-03-08T11:23:00;0.46;42.72
60242;SHT30;46103;52.076;113.488;2024-03-08T11:26:24;0.44;43.31
60242;SHT30;46103;52.076;113.488;2024-03-08T11:32:45;0.31;42.99
60242;SHT30;46103;52.076;113.488;2024-03-08T11:36:22;0.24;43.00
60242;SHT30;46103;52.076;113.488;2024-03-08T11:39:28;0.17;43.19
60242;SHT30;46103;52.076;113.488;2024-03-08T11:42:35;0.06;43.82
60242;SHT30;46103;52.076;113.488;2024-03-08T11:45:41;-0.02;44.25
60242;SHT30;46103;52.076;113.488;2024-03-08T11:48:47;-0.11;44.45
60242;SHT30;46103;52.076;113.488;2024-03-08T11:51:55;-0.17;44.89
60242;SHT30;46103;52.076;113.488;2024-03-08T11:54:59;-0.23;45.09
60242;SHT30;46103;52.076;113.488;2024-03-08T11:58:03;-0.30;45.25
60242;SHT30;46103;52.076;113.488;2024-03-08T12:01:11;-0.38;45.53
60242;SHT30;46103;52.076;113.488;2024-03-08T12:04:18;-0.43;45.59
60242;SHT30;46103;52.076;113.488;2024-03-08T12:07:22;-0.46;45.55
60242;SHT30;46103;52.076;113.488;2024-03-08T12:10:28;-0.53;45.89
60242;SHT30;46103;52.076;113.488;2024-03-08T12:13:37;-0.60;45.78
60242;SHT30;46103;52.076;113.488;2024-03-08T12:17:07;-0.67;45.80
60242;SHT30;46103;52.076;113.488;2024-03-08T12:20:18;-0.70;45.83
60242;SHT30;46103;52.076;113.488;2024-03-08T12:23:25;-0.76;46.38
60242;SHT30;46103;52.076;113.488;2024-03-08T12:26:37;-0.79;47.02
60242;SHT30;46103;52.076;113.488;2024-03-08T12:29:42;-0.81;46.90
60242;SHT30;46103;52.076;113.488;2024-03-08T12:32:55;-0.90;46.91
60242;SHT30;46103;52.076;113.488;2024-03-08T12:36:02;-0.94;47.22
60242;SHT30;46103;52.076;113.488;2024-03-08T12:39:10;-0.97;46.92
60242;SHT30;46103;52.076;113.488;2024-03-08T12:42:18;-1.05;47.16
60242;SHT30;46103;52.076;113.488;2024-03-08T12:45:23;-1.14;47.22
60242;SHT30;46103;52.076;113.488;2024-03-08T12:48:27;-1.19;47.23
60242;SHT30;46103;52.076;113.488;2024-03-08T12:51:36;-1.28;47.47
60242;SHT30;46103;52.076;113.488;2024-03-08T12:54:47;-1.35;47.66
60242;SHT30;46103;52.076;113.488;2024-03-08T12:57:52;-1.45;48.11
60242;SHT30;46103;52.076;113.488;2024-03-08T13:01:01;-1.49;48.41
60242;SHT30;46103;52.076;113.488;2024-03-08T13:04:11;-1.60;48.72
60242;SHT30;46103;52.076;113.488;2024-03-08T13:07:18;-1.76;49.59
60242;SHT30;46103;52.076;113.488;2024-03-08T13:10:23;-1.89;50.09
60242;SHT30;46103;52.076;113.488;2024-03-08T13:13:27;-1.95;50.29
60242;SHT30;46103;52.076;113.488;2024-03-08T13:16:31;-2.14;50.67
60242;SHT30;46103;52.076;113.488;2024-03-08T13:19:44;-2.34;51.30
60242;SHT30;46103;52.076;113.488;2024-03-08T13:22:49;-2.57;52.12
60242;SHT30;46103;52.076;113.488;2024-03-08T13:25:53;-2.67;52.34
60242;SHT30;46103;52.076;113.488;2024-03-08T13:28:56;-2.79;52.69
60242;SHT30;46103;52.076;113.488;2024-03-08T13:32:04;-2.86;52.90
60242;SHT30;46103;52.076;113.488;2024-03-08T13:35:11;-2.88;52.54
60242;SHT30;46103;52.076;113.488;2024-03-08T13:38:20;-2.94;52.65
60242;SHT30;46103;52.076;113.488;2024-03-08T13:41:24;-2.97;52.76
60242;SHT30;46103;52.076;113.488;2024-03-08T13:44:27;-3.01;52.93
60242;SHT30;46103;52.076;113.488;2024-03-08T13:47:37;-3.11;53.03
60242;SHT30;46103;52.076;113.488;2024-03-08T13:50:42;-3.21;53.35
60242;SHT30;46103;52.076;113.488;2024-03-08T13:53:47;-3.24;53.47
60242;SHT30;46103;52.076;113.488;2024-03-08T13:56:53;-3.35;53.15
60242;SHT30;46103;52.076;113.488;2024-03-08T13:59:58;-3.49;53.49
60242;SHT30;46103;52.076;113.488;2024-03-08T14:03:01;-3.58;53.65
60242;SHT30;46103;52.076;113.488;2024-03-08T14:06:13;-3.73;53.85
60242;SHT30;46103;52.076;113.488;2024-03-08T14:09:30;-3.80;54.08
60242;SHT30;46103;52.076;113.488;2024-03-08T14:12:34;-4.00;54.76
60242;SHT30;46103;52.076;113.488;2024-03-08T14:15:37;-4.07;54.83
60242;SHT30;46103;52.076;113.488;2024-03-08T14:18:45;-4.21;55.25
60242;SHT30;46103;52.076;113.488;2024-03-08T14:21:48;-4.29;55.58
60242;SHT30;46103;52.076;113.488;2024-03-08T14:24:54;-4.38;55.98
60242;SHT30;46103;52.076;113.488;2024-03-08T14:27:59;-4.35;56.25
60242;SHT30;46103;52.076;113.488;2024-03-08T14:31:06;-4.44;56.26
60242;SHT30;46103;52.076;113.488;2024-03-08T14:34:13;-4.52;56.63
60242;SHT30;46103;52.076;113.488;2024-03-08T14:37:17;-4.62;56.65
60242;SHT30;46103;52.076;113.488;2024-03-08T14:40:26;-4.70;56.73
60242;SHT30;46103;52.076;113.488;2024-03-08T14:43:29;-4.74;56.82
60242;SHT30;46103;52.076;113.488;2024-03-08T14:46:33;-4.79;56.89
60242;SHT30;46103;52.076;113.488;2024-03-08T14:49:36;-4.85;57.13
60242;SHT30;46103;52.076;113.488;2024-03-08T14:52:42;-4.91;57.31
60242;SHT30;46103;52.076;113.488;2024-03-08T14:55:47;-4.97;57.41
60242;SHT30;46103;52.076;113.488;2024-03-08T14:58:50;-5.05;57.44
60242;SHT30;46103;52.076;113.488;2024-03-08T15:01:54;-5.16;57.61
60242;SHT30;46103;52.076;113.488;2024-03-08T15:04:58;-5.25;58.09
60242;SHT30;46103;52.076;113.488;2024-03-08T15:08:05;-5.29;58.08
60242;SHT30;46103;52.076;113.488;2024-03-08T15:11:14;-5.42;58.22
60242;SHT30;46103;52.076;113.488;2024-03-08T15:14:24;-5.48;58.33
60242;SHT30;46103;52.076;113.488;2024-03-08T15:17:28;-5.53;58.47
60242;SHT30;46103;52.076;113.488;2024-03-08T15:20:31;-5.56;58.41
60242;SHT30;46103;52.076;113.488;2024-03-08T15:23:37;-5.60;58.50
60242;SHT30;46103;52.076;113.488;2024-03-08T15:26:46;-5.70;58.77
60242;SHT30;46103;52.076;113.488;2024-03-08T15:29:53;-5.90;59.14
60242;SHT30;46103;52.076;113.488;2024-03-08T15:32:58;-5.93;59.02
60242;SHT30;46103;52.076;113.488;2024-03-08T15:36:03;-6.04;59.01
60242;SHT30;46103;52.076;113.488;2024-03-08T15:39:08;-6.17;59.31
60242;SHT30;46103;52.076;113.488;2024-03-08T15:42:13;-6.26;59.59
60242;SHT30;46103;52.076;113.488;2024-03-08T15:45:16;-6.35;59.96
60242;SHT30;46103;52.076;113.488;2024-03-08T15:48:20;-6.36;59.93
60242;SHT30;46103;52.076;113.488;2024-03-08T15:51:24;-6.50;60.18
60242;SHT30;46103;52.076;113.488;2024-03-08T15:54:27;-6.59;60.39
60242;SHT30;46103;52.076;113.488;2024-03-08T15:57:30;-6.62;60.47
60242;SHT30;46103;52.076;113.488;2024-03-08T16:00:34;-6.70;60.59
60242;SHT30;46103;52.076;113.488;2024-03-08T16:03:39;-6.73;60.88
60242;SHT30;46103;52.076;113.488;2024-03-08T16:06:42;-6.77;61.21
60242;SHT30;46103;52.076;113.488;2024-03-08T16:09:47;-6.87;61.48
60242;SHT30;46103;52.076;113.488;2024-03-08T16:12:52;-6.90;61.96
60242;SHT30;46103;52.076;113.488;2024-03-08T16:15:55;-6.93;62.15
60242;SHT30;46103;52.076;113.488;2024-03-08T16:18:59;-6.94;62.20
60242;SHT30;46103;52.076;113.488;2024-03-08T16:22:04;-6.91;61.99
60242;SHT30;46103;52.076;113.488;2024-03-08T16:25:07;-6.93;61.81
60242;SHT30;46103;52.076;113.488;2024-03-08T16:28:15;-6.87;61.81
60242;SHT30;46103;52.076;113.488;2024-03-08T16:31:18;-6.85;61.68
60242;SHT30;46103;52.076;113.488;2024-03-08T16:34:21;-6.80;61.45
60242;SHT30;46103;52.076;113.488;2024-03-08T16:37:25;-6.83;61.29
60242;SHT30;46103;52.076;113.488;2024-03-08T16:40:31;-6.85;61.31
60242;SHT30;46103;52.076;113.488;2024-03-08T16:43:35;-6.84;60.98
60242;SHT30;46103;52.076;113.488;2024-03-08T16:46:39;-6.84;60.93
60242;SHT30;46103;52.076;113.488;2024-03-08T16:49:44;-6.85;60.90
60242;SHT30;46103;52.076;113.488;2024-03-08T16:52:47;-6.85;60.80
60242;SHT30;46103;52.076;113.488;2024-03-08T16:55:54;-6.94;60.97
60242;SHT30;46103;52.076;113.488;2024-03-08T16:59:00;-6.98;61.32
60242;SHT30;46103;52.076;113.488;2024-03-08T17:02:08;-6.95;61.50
60242;SHT30;46103;52.076;113.488;2024-03-08T17:05:14;-7.00;61.26
60242;SHT30;46103;52.076;113.488;2024-03-08T17:08:19;-7.03;61.10
60242;SHT30;46103;52.076;113.488;2024-03-08T17:11:22;-7.16;61.39
60242;SHT30;46103;52.076;113.488;2024-03-08T17:14:25;-7.38;61.86
60242;SHT30;46103;52.076;113.488;2024-03-08T17:17:31;-7.52;62.08
60242;SHT30;46103;52.076;113.488;2024-03-08T17:20:36;-7.69;62.78
60242;SHT30;46103;52.076;113.488;2024-03-08T17:23:39;-7.71;62.89
60242;SHT30;46103;52.076;113.488;2024-03-08T17:26:43;-7.66;62.75
60242;SHT30;46103;52.076;113.488;2024-03-08T17:29:46;-7.69;62.15
60242;SHT30;46103;52.076;113.488;2024-03-08T17:32:52;-7.76;61.91
60242;SHT30;46103;52.076;113.488;2024-03-08T17:36:01;-7.79;61.96
60242;SHT30;46103;52.076;113.488;2024-03-08T17:39:09;-7.84;62.00
60242;SHT30;46103;52.076;113.488;2024-03-08T17:42:20;-7.84;61.97
60242;SHT30;46103;52.076;113.488;2024-03-08T17:45:25;-7.87;62.31
60242;SHT30;46103;52.076;113.488;2024-03-08T17:48:30;-7.95;61.98
60242;SHT30;46103;52.076;113.488;2024-03-08T17:51:35;-8.05;62.46
60242;SHT30;46103;52.076;113.488;2024-03-08T17:54:38;-8.14;62.72
60242;SHT30;46103;52.076;113.488;2024-03-08T17:57:50;-8.15;62.98
60242;SHT30;46103;52.076;113.488;2024-03-08T18:00:54;-8.17;63.52
60242;SHT30;46103;52.076;113.488;2024-03-08T18:03:58;-8.14;64.19
60242;SHT30;46103;52.076;113.488;2024-03-08T18:07:03;-8.15;63.95
60242;SHT30;46103;52.076;113.488;2024-03-08T18:10:09;-8.11;63.96
60242;SHT30;46103;52.076;113.488;2024-03-08T18:13:21;-8.21;63.99
60242;SHT30;46103;52.076;113.488;2024-03-08T18:16:24;-8.25;64.24
60242;SHT30;46103;52.076;113.488;2024-03-08T18:19:27;-8.35;64.12
60242;SHT30;46103;52.076;113.488;2024-03-08T18:22:31;-8.35;64.02
60242;SHT30;46103;52.076;113.488;2024-03-08T18:25:35;-8.33;63.71
60242;SHT30;46103;52.076;113.488;2024-03-08T18:28:40;-8.36;63.21
60242;SHT30;46103;52.076;113.488;2024-03-08T18:31:44;-8.50;62.85
60242;SHT30;46103;52.076;113.488;2024-03-08T18:34:48;-8.61;62.49
60242;SHT30;46103;52.076;113.488;2024-03-08T18:37:52;-8.71;62.05
60242;SHT30;46103;52.076;113.488;2024-03-08T18:40:58;-8.85;61.63
60242;SHT30;46103;52.076;113.488;2024-03-08T18:44:03;-8.94;61.64
60242;SHT30;46103;52.076;113.488;2024-03-08T18:47:07;-9.01;61.81
60242;SHT30;46103;52.076;113.488;2024-03-08T18:50:10;-9.02;61.81
60242;SHT30;46103;52.076;113.488;2024-03-08T18:53:15;-9.07;61.77
60242;SHT30;46103;52.076;113.488;2024-03-08T18:56:18;-9.14;61.79
60242;SHT30;46103;52.076;113.488;2024-03-08T18:59:21;-9.22;62.51
60242;SHT30;46103;52.076;113.488;2024-03-08T19:02:25;-9.26;63.33
60242;SHT30;46103;52.076;113.488;2024-03-08T19:05:28;-9.28;64.11
60242;SHT30;46103;52.076;113.488;2024-03-08T19:08:31;-9.35;64.04
60242;SHT30;46103;52.076;113.488;2024-03-08T19:11:35;-9.44;64.69
60242;SHT30;46103;52.076;113.488;2024-03-08T19:14:43;-9.42;65.24
60242;SHT30;46103;52.076;113.488;2024-03-08T19:17:48;-9.44;65.20
60242;SHT30;46103;52.076;113.488;2024-03-08T19:20:54;-9.46;65.28
60242;SHT30;46103;52.076;113.488;2024-03-08T19:23:59;-9.43;64.89
60242;SHT30;46103;52.076;113.488;2024-03-08T19:27:02;-9.47;65.02